createdAt,value
2023-01-22T00:01:30.648Z,0.00
2023-01-22T00:03:58.948Z,0.00
2023-01-22T00:06:29.807Z,0.00
2023-01-22T00:09:03.819Z,0.00
2023-01-22T00:11:32.156Z,0.00
2023-01-22T00:14:02.015Z,0.00
2023-01-22T00:16:30.589Z,0.00
2023-01-22T00:18:58.994Z,0.00
2023-01-22T00:21:28.053Z,0.00
2023-01-22T00:23:56.003Z,0.00
2023-01-22T00:26:26.785Z,0.50
2023-01-22T00:28:55.473Z,0.10
2023-01-22T00:31:25.539Z,0.10
2023-01-22T00:33:54.037Z,0.10
2023-01-22T00:36:23.878Z,0.10
2023-01-22T00:38:52.878Z,0.10
2023-01-22T00:41:21.595Z,0.10
2023-01-22T00:43:52.882Z,0.10
2023-01-22T00:46:23.435Z,0.10
2023-01-22T00:48:53.156Z,0.10
2023-01-22T00:51:21.783Z,0.20
2023-01-22T00:53:51.219Z,0.10
2023-01-22T00:56:19.598Z,0.10
2023-01-22T00:58:47.751Z,0.20
2023-01-22T01:01:16.726Z,0.20
2023-01-22T01:03:45.023Z,0.20
2023-01-22T01:06:16.541Z,0.20
2023-01-22T01:08:47.388Z,0.20
2023-01-22T01:11:17.618Z,0.20
2023-01-22T01:13:46.272Z,0.20
2023-01-22T01:16:16.389Z,0.20
2023-01-22T01:18:44.972Z,0.30
2023-01-22T01:21:15.129Z,0.20
2023-01-22T01:23:44.046Z,0.20
2023-01-22T01:26:14.599Z,0.20
2023-01-22T01:28:45.487Z,0.20
2023-01-22T01:31:17.510Z,0.30
2023-01-22T01:33:49.337Z,0.30
2023-01-22T01:36:46.222Z,0.30
2023-01-22T01:39:12.769Z,0.30
2023-01-22T01:41:40.761Z,0.30
2023-01-22T01:44:11.677Z,0.30
2023-01-22T01:46:44.149Z,0.30
2023-01-22T01:49:23.744Z,0.30
2023-01-22T01:51:56.406Z,0.30
2023-01-22T01:54:25.148Z,0.30
2023-01-22T01:56:58.361Z,0.30
2023-01-22T01:59:26.477Z,0.40
2023-01-22T02:01:58.927Z,0.40
2023-01-22T02:04:29.262Z,0.40
2023-01-22T02:06:58.573Z,0.40
2023-01-22T02:09:27.421Z,0.40
2023-01-22T02:11:56.093Z,0.40
2023-01-22T02:14:27.949Z,0.40
2023-01-22T02:17:03.388Z,0.40
2023-01-22T02:19:31.457Z,0.40
2023-01-22T02:22:00.875Z,0.40
2023-01-22T02:24:31.925Z,0.40
2023-01-22T02:26:59.955Z,0.40
2023-01-22T02:29:29.065Z,0.50
2023-01-22T02:31:59.071Z,0.50
2023-01-22T02:34:27.182Z,0.50
2023-01-22T02:36:55.534Z,0.50
2023-01-22T02:39:25.563Z,0.50
2023-01-22T02:41:54.019Z,0.40
2023-01-22T02:44:22.239Z,0.50
2023-01-22T02:46:51.803Z,0.50
2023-01-22T02:49:20.093Z,0.50
2023-01-22T02:51:48.378Z,0.50
2023-01-22T02:54:17.874Z,0.50
2023-01-22T02:56:47.666Z,0.50
2023-01-22T02:59:18.018Z,0.50
2023-01-22T03:01:47.008Z,0.50
2023-01-22T03:04:17.012Z,0.50
2023-01-22T03:06:47.335Z,0.50
2023-01-22T03:09:17.365Z,0.50
2023-01-22T03:11:48.498Z,0.60
2023-01-22T03:14:34.400Z,0.60
2023-01-22T03:17:20.480Z,0.60
2023-01-22T03:20:06.569Z,0.60
2023-01-22T03:22:36.159Z,0.60
2023-01-22T03:25:04.987Z,0.60
2023-01-22T03:27:36.766Z,0.60
2023-01-22T03:30:07.181Z,0.60
2023-01-22T03:32:35.308Z,0.60
2023-01-22T03:35:03.375Z,0.60
2023-01-22T03:37:31.978Z,0.70
2023-01-22T03:40:00.486Z,0.70
2023-01-22T03:42:29.191Z,0.60
2023-01-22T03:44:58.531Z,0.70
2023-01-22T03:47:26.871Z,0.70
2023-01-22T03:49:56.710Z,0.70
2023-01-22T03:52:24.796Z,0.70
2023-01-22T03:54:54.330Z,0.70
2023-01-22T03:57:22.498Z,0.70
2023-01-22T03:59:51.116Z,0.70
2023-01-22T04:02:21.127Z,0.70
2023-01-22T04:04:50.554Z,0.70
2023-01-22T04:07:24.081Z,0.70
2023-01-22T04:09:53.944Z,0.70
2023-01-22T04:12:21.921Z,0.70
2023-01-22T04:14:50.254Z,0.70
2023-01-22T04:17:18.531Z,0.70
2023-01-22T04:19:48.098Z,0.70
2023-01-22T04:22:16.834Z,0.70
2023-01-22T04:24:45.110Z,0.70
2023-01-22T04:27:13.173Z,0.70
2023-01-22T04:29:41.112Z,0.70
2023-01-22T04:32:10.635Z,0.70
2023-01-22T04:34:39.171Z,0.70
2023-01-22T04:37:08.978Z,0.70
2023-01-22T04:39:37.139Z,0.70
2023-01-22T04:42:05.695Z,0.70
2023-01-22T04:44:34.278Z,0.70
2023-01-22T04:47:02.563Z,0.70
2023-01-22T04:49:30.991Z,0.70
2023-01-22T04:51:59.562Z,0.70
2023-01-22T04:54:30.512Z,0.70
2023-01-22T04:57:01.214Z,0.70
2023-01-22T04:59:29.345Z,0.70
2023-01-22T05:01:57.377Z,0.70
2023-01-22T05:04:26.627Z,0.70
2023-01-22T05:06:55.704Z,0.70
2023-01-22T05:09:24.838Z,0.80
2023-01-22T05:11:55.164Z,0.80
2023-01-22T05:14:23.402Z,0.80
2023-01-22T05:16:51.680Z,0.70
2023-01-22T05:19:19.867Z,0.80
2023-01-22T05:21:48.152Z,0.70
2023-01-22T05:24:16.525Z,0.80
2023-01-22T05:26:44.608Z,0.80
2023-01-22T05:29:14.351Z,0.80
2023-01-22T05:31:42.620Z,0.80
2023-01-22T05:34:11.120Z,0.80
2023-01-22T05:36:39.607Z,0.80
2023-01-22T05:39:08.102Z,0.90
2023-01-22T05:41:36.507Z,0.80
2023-01-22T05:44:07.001Z,0.80
2023-01-22T05:46:39.247Z,0.90
2023-01-22T05:49:08.135Z,0.80
2023-01-22T05:51:37.644Z,0.80
2023-01-22T05:54:06.370Z,0.90
2023-01-22T05:56:34.549Z,0.80
2023-01-22T05:59:03.087Z,0.90
2023-01-22T06:01:31.360Z,0.90
2023-01-22T06:04:00.999Z,0.90
2023-01-22T06:06:33.575Z,0.90
2023-01-22T06:09:01.703Z,0.90
2023-01-22T06:11:30.355Z,0.90
2023-01-22T06:13:59.063Z,0.90
2023-01-22T06:16:27.396Z,0.90
2023-01-22T06:18:56.554Z,0.90
2023-01-22T06:21:26.096Z,1.00
2023-01-22T06:23:54.492Z,1.00
2023-01-22T06:26:25.881Z,1.00
2023-01-22T06:28:55.424Z,1.10
2023-01-22T06:31:24.207Z,1.00
2023-01-22T06:33:54.613Z,1.00
2023-01-22T06:36:23.242Z,1.00
2023-01-22T06:38:53.001Z,1.00
2023-01-22T06:41:21.285Z,1.00
2023-01-22T06:43:49.804Z,1.00
2023-01-22T06:46:18.140Z,1.00
2023-01-22T06:48:48.075Z,1.00
2023-01-22T06:51:19.214Z,1.00
2023-01-22T06:53:48.385Z,1.00
2023-01-22T06:56:18.097Z,1.00
2023-01-22T06:58:46.335Z,1.00
2023-01-22T07:01:15.871Z,1.00
2023-01-22T07:03:46.094Z,1.00
2023-01-22T07:06:15.077Z,1.00
2023-01-22T07:08:45.781Z,1.00
2023-01-22T07:11:15.562Z,1.00
2023-01-22T07:13:46.364Z,1.00
2023-01-22T07:16:14.363Z,0.90
2023-01-22T07:18:43.334Z,0.90
2023-01-22T07:21:12.994Z,0.90
2023-01-22T07:23:42.370Z,0.90
2023-01-22T07:26:11.685Z,0.90
2023-01-22T07:28:40.821Z,0.90
2023-01-22T07:31:13.578Z,0.90
2023-01-22T07:33:41.650Z,0.80
2023-01-22T07:36:10.005Z,0.80
2023-01-22T07:38:38.715Z,0.90
2023-01-22T07:41:20.247Z,0.90
2023-01-22T07:43:55.501Z,0.90
2023-01-22T07:46:25.774Z,0.90
2023-01-22T07:48:54.259Z,0.90
2023-01-22T07:53:51.124Z,0.90
2023-01-22T07:56:19.638Z,1.00
2023-01-22T07:58:47.961Z,1.00
2023-01-22T08:01:17.466Z,1.00
2023-01-22T08:03:47.830Z,1.10
2023-01-22T08:06:20.747Z,1.10
2023-01-22T08:08:48.813Z,1.10
2023-01-22T08:11:17.627Z,1.10
2023-01-22T08:13:47.122Z,1.10
2023-01-22T08:16:16.683Z,1.20
2023-01-22T08:18:47.834Z,1.20
2023-01-22T08:21:16.765Z,1.40
2023-01-22T08:23:49.023Z,1.30
2023-01-22T08:26:19.834Z,1.40
2023-01-22T08:28:48.927Z,1.50
2023-01-22T08:31:27.298Z,1.60
2023-01-22T08:34:00.403Z,1.80
2023-01-22T08:36:28.496Z,1.80
2023-01-22T08:38:56.803Z,1.90
2023-01-22T08:41:26.035Z,1.90
2023-01-22T08:43:55.037Z,2.00
2023-01-22T08:46:23.279Z,2.10
2023-01-22T08:48:51.447Z,2.10
2023-01-22T08:51:22.808Z,2.20
2023-01-22T08:53:51.491Z,2.30
2023-01-22T08:56:20.053Z,2.30
2023-01-22T08:58:50.600Z,2.20
2023-01-22T09:01:21.017Z,2.20
2023-01-22T09:03:49.854Z,2.20
2023-01-22T09:06:18.561Z,2.30
2023-01-22T09:08:48.415Z,2.40
2023-01-22T09:11:16.635Z,2.50
2023-01-22T09:13:45.242Z,2.50
2023-01-22T09:16:13.458Z,2.40
2023-01-22T09:18:42.292Z,2.50
2023-01-22T09:21:10.638Z,2.60
2023-01-22T09:23:39.003Z,2.60
2023-01-22T09:26:08.619Z,2.70
2023-01-22T09:28:37.020Z,2.70
2023-01-22T09:31:06.862Z,2.80
2023-01-22T09:33:35.095Z,2.90
2023-01-22T09:36:11.433Z,3.00
2023-01-22T09:38:40.135Z,3.00
2023-01-22T09:41:18.838Z,3.10
2023-01-22T09:43:52.141Z,3.00
2023-01-22T09:46:27.312Z,3.10
2023-01-22T09:49:02.517Z,3.10
2023-01-22T09:51:31.341Z,3.00
2023-01-22T09:54:02.154Z,3.00
2023-01-22T09:56:37.356Z,3.10
2023-01-22T09:59:07.312Z,3.00
2023-01-22T10:01:36.981Z,3.00
2023-01-22T10:04:08.579Z,3.00
2023-01-22T10:06:37.953Z,3.10
2023-01-22T10:09:15.602Z,3.00
2023-01-22T10:11:50.612Z,3.10
2023-01-22T10:14:22.240Z,3.20
2023-01-22T10:16:50.674Z,3.20
2023-01-22T10:19:23.864Z,3.20
2023-01-22T10:21:57.931Z,3.20
2023-01-22T10:24:27.062Z,3.20
2023-01-22T10:27:01.548Z,3.40
2023-01-22T10:29:35.071Z,3.30
2023-01-22T10:32:18.614Z,3.40
2023-01-22T10:35:00.025Z,3.40
2023-01-22T10:37:29.337Z,3.60
2023-01-22T10:39:59.632Z,3.70
2023-01-22T10:42:30.875Z,3.70
2023-01-22T10:45:16.683Z,3.60
2023-01-22T10:47:44.788Z,3.60
2023-01-22T10:50:18.199Z,3.70
2023-01-22T10:52:51.759Z,3.70
2023-01-22T10:55:23.868Z,3.60
2023-01-22T10:57:57.641Z,3.60
2023-01-22T11:00:46.432Z,3.60
2023-01-22T11:03:23.501Z,3.60
2023-01-22T11:05:57.983Z,3.60
2023-01-22T11:08:31.143Z,3.70
2023-01-22T11:11:03.611Z,3.80
2023-01-22T11:13:40.074Z,4.00
2023-01-22T11:16:13.566Z,4.00
2023-01-22T11:18:44.262Z,4.10
2023-01-22T11:21:18.952Z,4.00
2023-01-22T11:23:53.515Z,4.10
2023-01-22T11:26:33.880Z,4.10
2023-01-22T11:29:13.976Z,4.10
2023-01-22T11:31:55.273Z,4.10
2023-01-22T11:34:46.501Z,4.20
2023-01-22T11:37:17.266Z,4.40
2023-01-22T11:40:05.264Z,4.30
2023-01-22T11:42:55.608Z,4.40
2023-01-22T11:45:41.752Z,4.60
2023-01-22T11:48:25.817Z,4.70
2023-01-22T11:51:02.424Z,4.70
2023-01-22T11:53:48.376Z,4.60
2023-01-22T11:56:41.206Z,4.50
2023-01-22T11:59:14.218Z,4.60
2023-01-22T12:01:51.050Z,4.80
2023-01-22T12:04:36.469Z,4.80
2023-01-22T12:07:36.592Z,4.60
2023-01-22T12:10:20.542Z,4.60
2023-01-22T12:12:56.700Z,4.50
2023-01-22T12:15:38.410Z,4.30
2023-01-22T12:18:31.326Z,4.30
2023-01-22T12:21:09.534Z,4.40
2023-01-22T12:23:43.165Z,4.30
2023-01-22T12:26:17.070Z,4.40
2023-01-22T12:28:52.194Z,4.40
2023-01-22T12:31:27.075Z,4.40
2023-01-22T12:33:59.493Z,4.50
2023-01-22T12:36:29.624Z,4.60
2023-01-22T12:39:03.147Z,4.70
2023-01-22T12:41:55.205Z,4.70
2023-01-22T12:44:33.837Z,4.80
2023-01-22T12:47:10.406Z,5.00
2023-01-22T12:49:49.148Z,5.10
2023-01-22T12:52:39.301Z,4.90
2023-01-22T12:55:29.220Z,4.80
2023-01-22T12:57:57.958Z,4.80
2023-01-22T13:00:34.860Z,4.60
2023-01-22T13:03:04.688Z,4.50
2023-01-22T13:05:45.590Z,4.30
2023-01-22T13:08:36.720Z,4.30
2023-01-22T13:11:08.110Z,4.30
2023-01-22T13:13:44.918Z,4.30
2023-01-22T13:16:23.481Z,4.30
2023-01-22T13:18:53.903Z,4.30
2023-01-22T13:21:30.483Z,4.20
2023-01-22T13:24:01.837Z,4.10
2023-01-22T13:26:32.481Z,3.90
2023-01-22T13:29:03.456Z,3.70
2023-01-22T13:31:33.226Z,3.70
2023-01-22T13:34:08.615Z,3.70
2023-01-22T13:36:45.612Z,3.60
2023-01-22T13:39:20.111Z,3.50
2023-01-22T13:41:52.320Z,3.50
2023-01-22T13:44:24.756Z,3.30
2023-01-22T13:46:53.942Z,3.20
2023-01-22T13:49:26.548Z,3.10
2023-01-22T13:52:02.369Z,3.10
2023-01-22T13:54:35.427Z,3.00
2023-01-22T13:57:03.544Z,2.90
2023-01-22T13:59:35.205Z,2.90
2023-01-22T14:02:20.866Z,2.90
2023-01-22T14:04:49.682Z,2.90
2023-01-22T14:07:27.612Z,2.90
2023-01-22T14:09:56.768Z,2.80
2023-01-22T14:12:30.406Z,2.80
2023-01-22T14:14:58.682Z,2.80
2023-01-22T14:17:30.047Z,2.80
2023-01-22T14:19:58.638Z,2.80
2023-01-22T14:22:28.410Z,2.80
2023-01-22T14:24:56.652Z,2.90
2023-01-22T14:27:29.731Z,2.80
2023-01-22T14:29:58.070Z,2.80
2023-01-22T14:32:27.005Z,2.90
2023-01-22T14:34:55.252Z,2.90
2023-01-22T14:37:23.338Z,2.90
2023-01-22T14:39:52.989Z,2.80
2023-01-22T14:42:20.997Z,2.80
2023-01-22T14:44:48.987Z,2.80
2023-01-22T14:47:17.089Z,2.80
2023-01-22T14:49:45.329Z,2.70
2023-01-22T14:52:13.306Z,2.60
2023-01-22T14:54:42.844Z,2.60
2023-01-22T14:57:12.579Z,2.60
2023-01-22T14:59:41.886Z,2.60
2023-01-22T15:02:11.271Z,2.60
2023-01-22T15:04:41.018Z,2.60
2023-01-22T15:07:09.848Z,2.50
2023-01-22T15:09:38.484Z,2.50
2023-01-22T15:12:07.272Z,2.50
2023-01-22T15:14:39.935Z,2.50
2023-01-22T15:17:09.912Z,2.50
2023-01-22T15:19:41.485Z,2.50
2023-01-22T15:22:11.127Z,2.50
2023-01-22T15:24:40.695Z,2.50
2023-01-22T15:27:08.867Z,2.50
2023-01-22T15:29:38.784Z,2.50
2023-01-22T15:32:07.476Z,2.50
2023-01-22T15:34:35.573Z,2.40
2023-01-22T15:37:05.182Z,2.40
2023-01-22T15:39:33.356Z,2.40
2023-01-22T15:42:01.650Z,2.40
2023-01-22T15:44:29.823Z,2.50
2023-01-22T15:47:01.227Z,2.50
2023-01-22T15:49:29.335Z,2.40
2023-01-22T15:51:58.525Z,2.40
2023-01-22T15:54:28.393Z,2.40
2023-01-22T15:56:56.713Z,2.40
2023-01-22T15:59:25.097Z,2.40
2023-01-22T16:01:55.371Z,2.30
2023-01-22T16:04:25.199Z,2.40
2023-01-22T16:06:53.627Z,2.30
2023-01-22T16:09:24.312Z,2.30
2023-01-22T16:11:52.820Z,2.30
2023-01-22T16:14:21.089Z,2.20
2023-01-22T16:16:49.622Z,2.30
2023-01-22T16:19:17.952Z,2.30
2023-01-22T16:21:48.127Z,2.20
2023-01-22T16:24:16.825Z,2.20
2023-01-22T16:26:47.348Z,2.20
2023-01-22T16:29:15.515Z,2.20
2023-01-22T16:31:44.092Z,2.20
2023-01-22T16:34:17.726Z,2.20
2023-01-22T16:36:48.919Z,2.20
2023-01-22T16:39:21.156Z,2.10
2023-01-22T16:41:51.315Z,2.20
2023-01-22T16:44:26.924Z,2.20
2023-01-22T16:46:57.614Z,2.20
2023-01-22T16:49:27.827Z,2.20
2023-01-22T16:52:13.117Z,2.20
2023-01-22T16:54:50.529Z,2.20
2023-01-22T16:57:19.505Z,2.10
2023-01-22T16:59:48.062Z,2.10
2023-01-22T17:02:19.160Z,2.10
2023-01-22T17:04:47.624Z,2.20
2023-01-22T17:07:32.758Z,2.20
2023-01-22T17:10:04.733Z,2.20
2023-01-22T17:12:33.409Z,2.20
2023-01-22T17:15:03.200Z,2.20
2023-01-22T17:17:31.726Z,2.20
2023-01-22T17:20:03.596Z,2.20
2023-01-22T17:22:36.183Z,2.20
2023-01-22T17:25:04.444Z,2.20
2023-01-22T17:27:33.147Z,2.20
2023-01-22T17:30:08.005Z,2.10
2023-01-22T17:32:39.893Z,2.10
2023-01-22T17:35:11.920Z,2.10
2023-01-22T17:37:41.912Z,2.10
2023-01-22T17:40:12.875Z,2.20
2023-01-22T17:42:41.432Z,2.10
2023-01-22T17:45:11.692Z,2.10
2023-01-22T17:47:45.853Z,2.10
2023-01-22T17:50:14.389Z,2.20
2023-01-22T17:52:44.300Z,2.20
2023-01-22T17:55:12.811Z,2.10
2023-01-22T17:57:41.540Z,2.20
2023-01-22T18:00:14.484Z,2.90
2023-01-22T18:02:44.508Z,2.20
2023-01-22T18:05:14.104Z,2.40
2023-01-22T18:07:44.042Z,2.30
2023-01-22T18:10:18.784Z,2.20
2023-01-22T18:12:47.284Z,2.10
2023-01-22T18:15:15.465Z,2.00
2023-01-22T18:17:44.108Z,2.20
2023-01-22T18:20:12.844Z,2.20
2023-01-22T18:22:41.315Z,2.00
2023-01-22T18:25:14.160Z,2.20
2023-01-22T18:27:42.626Z,2.20
2023-01-22T18:30:12.145Z,2.10
2023-01-22T18:32:40.306Z,1.90
2023-01-22T18:35:10.413Z,2.20
2023-01-22T18:37:38.720Z,2.20
2023-01-22T18:40:08.252Z,2.20
2023-01-22T18:42:38.069Z,2.20
2023-01-22T18:45:07.886Z,2.20
2023-01-22T18:47:37.229Z,2.00
2023-01-22T18:50:05.763Z,2.20
2023-01-22T18:52:33.923Z,2.10
2023-01-22T18:55:02.584Z,2.20
2023-01-22T18:57:33.221Z,2.20
2023-01-22T19:00:05.005Z,2.20
2023-01-22T19:02:34.082Z,2.10
2023-01-22T19:05:02.625Z,2.10
2023-01-22T19:07:30.881Z,2.10
2023-01-22T19:09:59.730Z,2.10
2023-01-22T19:12:28.269Z,2.30
2023-01-22T19:14:57.100Z,2.10
2023-01-22T19:17:26.820Z,2.10
2023-01-22T19:19:55.902Z,2.10
2023-01-22T19:22:24.446Z,2.30
2023-01-22T19:24:52.811Z,2.10
2023-01-22T19:27:21.149Z,2.10
2023-01-22T19:29:49.283Z,2.10
2023-01-22T19:32:23.794Z,2.10
2023-01-22T19:34:53.687Z,2.10
2023-01-22T19:37:21.993Z,2.20
2023-01-22T19:39:50.405Z,2.10
2023-01-22T19:42:21.133Z,2.10
2023-01-22T19:44:49.199Z,2.10
2023-01-22T19:47:17.940Z,2.10
2023-01-22T19:49:45.900Z,2.10
2023-01-22T19:52:15.932Z,2.10
2023-01-22T19:54:47.932Z,2.10
2023-01-22T19:57:17.924Z,2.20
2023-01-22T19:59:48.207Z,1.60
2023-01-22T20:02:16.959Z,2.20
2023-01-22T20:04:46.516Z,2.10
2023-01-22T20:07:16.698Z,2.10
2023-01-22T20:09:45.153Z,2.20
2023-01-22T20:12:15.480Z,2.20
2023-01-22T20:14:43.931Z,2.20
2023-01-22T20:17:13.069Z,2.20
2023-01-22T20:19:42.400Z,2.10
2023-01-22T20:22:12.083Z,2.10
2023-01-22T20:24:42.632Z,2.20
2023-01-22T20:27:12.436Z,2.10
2023-01-22T20:29:40.684Z,2.10
2023-01-22T20:32:08.875Z,2.20
2023-01-22T20:34:42.965Z,2.10
2023-01-22T20:37:13.419Z,2.10
2023-01-22T20:39:42.873Z,2.40
2023-01-22T20:42:10.910Z,2.20
2023-01-22T20:44:39.441Z,2.20
2023-01-22T20:47:07.777Z,2.10
2023-01-22T20:49:37.953Z,2.20
2023-01-22T20:52:06.734Z,2.20
2023-01-22T20:54:36.973Z,2.10
2023-01-22T20:57:12.325Z,2.20
2023-01-22T20:59:41.339Z,2.20
2023-01-22T21:02:12.296Z,2.20
2023-01-22T21:04:40.670Z,2.20
2023-01-22T21:07:09.107Z,2.10
2023-01-22T21:09:39.349Z,2.10
2023-01-22T21:12:07.537Z,2.10
2023-01-22T21:14:37.053Z,2.10
2023-01-22T21:17:05.536Z,2.10
2023-01-22T21:19:34.896Z,2.00
2023-01-22T21:22:03.868Z,2.00
2023-01-22T21:24:33.118Z,2.00
2023-01-22T21:27:01.243Z,2.00
2023-01-22T21:29:29.616Z,2.00
2023-01-22T21:31:59.514Z,2.00
2023-01-22T21:34:28.420Z,2.00
2023-01-22T21:36:58.805Z,2.30
2023-01-22T21:39:29.377Z,2.00
2023-01-22T21:42:18.165Z,2.00
2023-01-22T21:45:04.646Z,2.00
2023-01-22T21:47:35.793Z,2.00
2023-01-22T21:50:05.364Z,2.00
2023-01-22T21:52:33.661Z,2.10
2023-01-22T21:55:02.049Z,2.00
2023-01-22T21:57:38.503Z,2.10
2023-01-22T22:00:11.370Z,2.10
2023-01-22T22:02:44.700Z,2.00
2023-01-22T22:05:13.572Z,2.00
2023-01-22T22:07:44.247Z,2.10
2023-01-22T22:10:15.305Z,2.00
2023-01-22T22:12:44.041Z,1.90
2023-01-22T22:15:12.812Z,2.00
2023-01-22T22:17:44.877Z,2.10
2023-01-22T22:20:13.954Z,2.10
2023-01-22T22:22:42.221Z,2.00
2023-01-22T22:25:11.489Z,2.10
2023-01-22T22:27:39.544Z,2.10
2023-01-22T22:30:10.637Z,2.10
2023-01-22T22:32:41.076Z,2.10
2023-01-22T22:35:11.636Z,2.10
2023-01-22T22:37:40.478Z,2.10
2023-01-22T22:40:11.320Z,2.30
2023-01-22T22:42:39.521Z,2.00
2023-01-22T22:45:08.656Z,2.00
2023-01-22T22:47:37.712Z,2.00
2023-01-22T22:50:06.840Z,2.00
2023-01-22T22:52:36.743Z,1.90
2023-01-22T22:55:05.843Z,1.90
2023-01-22T22:57:34.368Z,1.90
2023-01-22T23:00:04.467Z,1.90
2023-01-22T23:02:33.284Z,1.90
2023-01-22T23:05:01.675Z,1.90
2023-01-22T23:07:29.950Z,1.90
2023-01-22T23:09:59.868Z,2.00
2023-01-22T23:12:35.349Z,1.90
2023-01-22T23:15:03.874Z,1.90
2023-01-22T23:17:32.389Z,1.90
2023-01-22T23:20:00.940Z,1.90
2023-01-22T23:22:29.704Z,2.40
2023-01-22T23:25:00.136Z,1.90
2023-01-22T23:27:30.456Z,1.80
2023-01-22T23:29:58.906Z,1.80
2023-01-22T23:32:27.510Z,1.80
2023-01-22T23:34:55.636Z,1.80
2023-01-22T23:37:24.011Z,1.80
2023-01-22T23:39:52.049Z,1.80
2023-01-22T23:42:22.294Z,1.70
2023-01-22T23:44:50.319Z,2.00
2023-01-22T23:47:20.175Z,1.70
2023-01-22T23:49:48.447Z,1.70
2023-01-22T23:52:17.003Z,1.70
2023-01-22T23:54:45.263Z,1.70
2023-01-22T23:57:13.700Z,1.70
2023-01-22T23:59:45.032Z,1.70
